createdAt,value
2022-12-15T00:00:25.506Z,15.25
2022-12-15T00:03:11.694Z,12.93
2022-12-15T00:05:57.549Z,13.95
2022-12-15T00:08:43.635Z,14.00
2022-12-15T00:11:29.817Z,14.63
2022-12-15T00:14:16.983Z,13.77
2022-12-15T00:17:03.031Z,11.45
2022-12-15T00:19:49.145Z,10.75
2022-12-15T00:22:35.164Z,10.40
2022-12-15T00:25:21.254Z,10.55
2022-12-15T00:28:07.289Z,12.38
2022-12-15T00:31:00.443Z,10.50
2022-12-15T00:33:47.863Z,10.03
2022-12-15T00:36:34.128Z,12.97
2022-12-15T00:39:04.171Z,9.70
2022-12-15T00:41:32.655Z,13.57
2022-12-15T00:44:00.972Z,10.60
2022-12-15T00:46:48.353Z,13.17
2022-12-15T00:49:30.668Z,13.07
2022-12-15T00:52:16.409Z,11.85
2022-12-15T00:55:02.533Z,10.27
2022-12-15T00:57:48.565Z,9.32
2022-12-15T01:00:34.552Z,12.65
2022-12-15T01:03:28.428Z,9.32
2022-12-15T01:06:14.479Z,10.00
2022-12-15T01:09:00.438Z,11.52
2022-12-15T01:11:46.560Z,10.85
2022-12-15T01:14:32.688Z,10.00
2022-12-15T01:17:18.719Z,9.25
2022-12-15T01:20:06.162Z,9.70
2022-12-15T01:22:34.477Z,9.20
2022-12-15T01:25:02.737Z,10.97
2022-12-15T01:27:31.036Z,9.02
2022-12-15T01:29:59.372Z,9.00
2022-12-15T01:32:28.119Z,8.20
2022-12-15T01:34:57.771Z,10.73
2022-12-15T01:37:26.069Z,10.05
2022-12-15T01:40:11.828Z,10.15
2022-12-15T01:42:40.172Z,9.70
2022-12-15T01:45:33.690Z,8.88
2022-12-15T01:48:04.488Z,10.75
2022-12-15T01:50:35.000Z,9.00
2022-12-15T01:53:04.019Z,9.43
2022-12-15T01:55:32.451Z,9.77
2022-12-15T01:58:03.377Z,9.57
2022-12-15T02:00:32.175Z,9.73
2022-12-15T02:03:00.915Z,9.52
2022-12-15T02:05:30.209Z,12.00
2022-12-15T02:08:00.292Z,10.35
2022-12-15T02:10:30.851Z,8.65
2022-12-15T02:13:04.837Z,10.60
2022-12-15T02:15:35.694Z,11.00
2022-12-15T02:18:11.585Z,10.73
2022-12-15T02:20:46.480Z,9.73
2022-12-15T02:23:36.028Z,9.75
2022-12-15T02:26:21.977Z,9.07
2022-12-15T02:28:54.725Z,11.35
2022-12-15T02:31:45.541Z,9.90
2022-12-15T02:34:21.352Z,9.70
2022-12-15T02:36:51.280Z,10.68
2022-12-15T02:39:20.088Z,9.60
2022-12-15T02:41:51.544Z,10.38
2022-12-15T02:44:22.643Z,10.40
2022-12-15T02:46:59.283Z,11.63
2022-12-15T02:49:32.812Z,8.18
2022-12-15T02:52:06.080Z,10.77
2022-12-15T02:54:38.687Z,12.20
2022-12-15T02:57:12.742Z,11.63
2022-12-15T02:59:44.220Z,10.10
2022-12-15T03:02:15.110Z,13.80
2022-12-15T03:04:45.535Z,11.52
2022-12-15T03:07:15.641Z,13.83
2022-12-15T03:09:43.885Z,12.25
2022-12-15T03:12:12.143Z,14.85
2022-12-15T03:14:40.388Z,11.35
2022-12-15T03:17:08.750Z,13.95
2022-12-15T03:19:38.421Z,13.02
2022-12-15T03:22:06.860Z,15.05
2022-12-15T03:24:35.155Z,14.45
2022-12-15T03:27:03.464Z,13.05
2022-12-15T03:29:32.000Z,14.93
2022-12-15T03:32:00.547Z,14.50
2022-12-15T03:34:28.848Z,15.23
2022-12-15T03:36:59.227Z,13.40
2022-12-15T03:39:27.512Z,13.02
2022-12-15T03:41:55.766Z,15.70
2022-12-15T03:44:24.051Z,14.05
2022-12-15T03:46:52.348Z,15.32
2022-12-15T03:49:20.568Z,12.45
2022-12-15T03:51:48.847Z,13.95
2022-12-15T03:54:18.572Z,15.15
2022-12-15T03:56:46.845Z,15.95
2022-12-15T03:59:15.296Z,14.50
2022-12-15T04:01:47.560Z,13.43
2022-12-15T04:04:15.913Z,15.30
2022-12-15T04:06:44.226Z,15.73
2022-12-15T04:09:12.488Z,13.13
2022-12-15T04:11:42.117Z,13.23
2022-12-15T04:14:11.031Z,12.63
2022-12-15T04:16:39.437Z,13.32
2022-12-15T04:19:21.743Z,13.80
2022-12-15T04:21:50.003Z,13.52
2022-12-15T04:24:35.763Z,14.32
2022-12-15T04:27:23.084Z,16.83
2022-12-15T04:30:09.438Z,13.73
2022-12-15T04:32:55.555Z,15.18
2022-12-15T04:35:41.516Z,12.93
2022-12-15T04:38:27.540Z,12.83
2022-12-15T04:41:13.476Z,11.50
2022-12-15T04:44:00.672Z,12.77
2022-12-15T04:46:46.881Z,13.00
2022-12-15T04:49:32.916Z,11.90
2022-12-15T04:52:19.162Z,13.60
2022-12-15T04:55:05.269Z,11.13
2022-12-15T04:57:51.293Z,14.90
2022-12-15T05:00:38.578Z,14.37
2022-12-15T05:03:24.905Z,13.20
2022-12-15T05:06:10.763Z,11.18
2022-12-15T05:08:56.783Z,11.38
2022-12-15T05:11:42.757Z,11.63
2022-12-15T05:14:28.637Z,10.82
2022-12-15T05:17:15.959Z,11.65
2022-12-15T05:20:01.716Z,11.25
2022-12-15T05:22:47.897Z,11.10
2022-12-15T05:25:33.821Z,10.55
2022-12-15T05:28:19.912Z,10.82
2022-12-15T05:31:06.041Z,10.30
2022-12-15T05:33:35.740Z,11.95
2022-12-15T05:36:04.063Z,13.30
2022-12-15T05:38:32.308Z,10.57
2022-12-15T05:41:00.696Z,9.70
2022-12-15T05:43:30.532Z,10.80
2022-12-15T05:45:59.206Z,11.45
2022-12-15T05:48:29.019Z,8.77
2022-12-15T05:50:58.671Z,10.32
2022-12-15T05:53:26.954Z,11.70
2022-12-15T05:55:55.173Z,9.80
2022-12-15T05:58:23.518Z,9.80
2022-12-15T06:00:51.829Z,9.57
2022-12-15T06:03:20.248Z,10.27
2022-12-15T06:05:54.636Z,12.23
2022-12-15T06:08:26.025Z,10.70
2022-12-15T06:10:55.065Z,13.00
2022-12-15T06:13:23.376Z,9.70
2022-12-15T06:15:58.582Z,12.03
2022-12-15T06:18:27.600Z,11.27
2022-12-15T06:20:58.895Z,10.60
2022-12-15T06:23:30.094Z,9.93
2022-12-15T06:25:58.669Z,12.25
2022-12-15T06:28:27.256Z,10.82
2022-12-15T06:30:56.129Z,9.43
2022-12-15T06:33:25.080Z,11.95
2022-12-15T06:35:53.410Z,9.02
2022-12-15T06:38:21.736Z,10.67
2022-12-15T06:40:58.158Z,12.75
2022-12-15T06:43:26.991Z,11.05
2022-12-15T06:45:55.424Z,9.23
2022-12-15T06:48:24.323Z,11.52
2022-12-15T06:50:52.925Z,12.90
2022-12-15T06:53:22.103Z,11.80
2022-12-15T06:55:50.399Z,11.05
2022-12-15T06:58:20.993Z,10.45
2022-12-15T07:00:49.257Z,11.23
2022-12-15T07:03:19.085Z,11.77
2022-12-15T07:05:47.835Z,12.15
2022-12-15T07:08:16.824Z,11.30
2022-12-15T07:10:45.654Z,12.23
2022-12-15T07:13:14.616Z,10.70
2022-12-15T07:15:45.072Z,10.82
2022-12-15T07:18:13.355Z,11.02
2022-12-15T07:20:41.646Z,10.05
2022-12-15T07:23:09.966Z,10.77
2022-12-15T07:25:38.585Z,9.70
2022-12-15T07:28:07.073Z,11.00
2022-12-15T07:30:38.967Z,11.63
2022-12-15T07:33:08.811Z,9.93
2022-12-15T07:35:37.126Z,9.88
2022-12-15T07:38:08.085Z,9.88
2022-12-15T07:40:36.641Z,12.15
2022-12-15T07:43:04.876Z,10.40
2022-12-15T07:45:33.195Z,8.65
2022-12-15T07:48:02.027Z,10.50
2022-12-15T07:50:31.684Z,8.82
2022-12-15T07:52:59.970Z,10.82
2022-12-15T07:55:57.299Z,9.90
2022-12-15T07:58:16.550Z,8.85
2022-12-15T08:00:48.760Z,9.48
2022-12-15T08:03:17.414Z,11.17
2022-12-15T08:05:47.221Z,10.55
2022-12-15T08:08:15.698Z,11.35
2022-12-15T08:10:44.013Z,11.18
2022-12-15T08:13:26.034Z,10.43
2022-12-15T08:16:00.667Z,8.80
2022-12-15T08:18:29.372Z,13.50
2022-12-15T08:21:03.540Z,9.37
2022-12-15T08:23:33.429Z,10.00
2022-12-15T08:26:04.661Z,9.00
2022-12-15T08:28:33.312Z,10.20
2022-12-15T08:31:04.120Z,10.40
2022-12-15T08:33:33.033Z,10.93
2022-12-15T08:36:03.843Z,11.40
2022-12-15T08:38:32.156Z,10.38
2022-12-15T08:41:00.578Z,11.35
2022-12-15T08:43:29.294Z,11.27
2022-12-15T08:45:57.872Z,11.57
2022-12-15T08:48:26.168Z,11.20
2022-12-15T08:50:56.684Z,9.77
2022-12-15T08:53:33.587Z,11.93
2022-12-15T08:56:03.979Z,13.90
2022-12-15T08:58:32.311Z,12.47
2022-12-15T09:01:03.799Z,13.77
2022-12-15T09:03:32.428Z,15.40
2022-12-15T09:06:03.875Z,12.45
2022-12-15T09:08:34.570Z,12.80
2022-12-15T09:11:03.408Z,13.32
2022-12-15T09:13:32.027Z,13.18
2022-12-15T09:16:09.453Z,14.88
2022-12-15T09:18:38.865Z,15.05
2022-12-15T09:21:08.133Z,15.90
2022-12-15T09:23:37.866Z,15.45
2022-12-15T09:26:07.515Z,12.88
2022-12-15T09:28:35.930Z,13.70
2022-12-15T09:31:04.644Z,14.93
2022-12-15T09:33:33.361Z,13.35
2022-12-15T09:36:02.022Z,15.75
2022-12-15T09:38:30.535Z,14.63
2022-12-15T09:41:00.119Z,12.82
2022-12-15T09:43:47.071Z,13.33
2022-12-15T09:46:20.229Z,15.57
2022-12-15T09:48:48.749Z,12.35
2022-12-15T09:51:18.618Z,13.57
2022-12-15T09:53:55.777Z,12.65
2022-12-15T09:56:33.773Z,13.35
2022-12-15T09:59:04.713Z,12.85
2022-12-15T10:01:35.943Z,13.00
2022-12-15T10:04:09.041Z,13.00
2022-12-15T10:06:40.683Z,17.00
2022-12-15T10:09:16.579Z,17.33
2022-12-15T10:11:50.956Z,14.63
2022-12-15T10:14:25.980Z,22.40
2022-12-15T10:16:56.725Z,19.10
2022-12-15T10:19:28.554Z,17.85
2022-12-15T10:21:58.271Z,19.20
2022-12-15T10:25:00.264Z,16.77
2022-12-15T10:27:24.446Z,16.13
2022-12-15T10:29:58.133Z,18.00
2022-12-15T10:32:31.138Z,19.25
2022-12-15T10:34:59.400Z,16.13
2022-12-15T10:37:27.732Z,17.05
2022-12-15T10:39:55.971Z,18.52
2022-12-15T10:42:25.965Z,13.90
2022-12-15T10:44:55.396Z,16.90
2022-12-15T10:47:25.964Z,19.30
2022-12-15T10:49:54.542Z,20.80
2022-12-15T10:52:24.806Z,19.98
2022-12-15T10:54:54.199Z,28.52
2022-12-15T10:57:24.261Z,42.40
2022-12-15T10:59:53.885Z,74.93
2022-12-15T11:02:29.535Z,93.03
2022-12-15T11:04:58.755Z,108.53
2022-12-15T11:07:28.306Z,115.30
2022-12-15T11:10:00.796Z,109.05
2022-12-15T11:12:48.796Z,105.70
2022-12-15T11:15:51.166Z,104.77
2022-12-15T11:18:28.077Z,101.85
2022-12-15T11:21:00.805Z,84.45
2022-12-15T11:23:32.926Z,77.15
2022-12-15T11:26:07.200Z,63.70
2022-12-15T11:28:40.731Z,59.38
2022-12-15T11:31:15.500Z,52.15
2022-12-15T11:33:45.178Z,38.90
2022-12-15T11:36:16.843Z,39.85
2022-12-15T11:38:46.424Z,36.10
2022-12-15T11:41:19.374Z,31.52
2022-12-15T11:43:54.435Z,28.02
2022-12-15T11:46:24.337Z,25.03
2022-12-15T11:49:01.197Z,27.85
2022-12-15T11:51:33.704Z,19.48
2022-12-15T11:54:12.055Z,20.17
2022-12-15T11:56:41.650Z,17.10
2022-12-15T11:59:20.884Z,20.10
2022-12-15T12:02:03.068Z,16.60
2022-12-15T12:04:39.460Z,16.50
2022-12-15T12:07:10.500Z,16.97
2022-12-15T12:09:39.638Z,17.60
2022-12-15T12:12:17.616Z,17.98
2022-12-15T12:14:50.551Z,15.18
2022-12-15T12:17:42.426Z,14.45
2022-12-15T12:20:16.432Z,15.68
2022-12-15T12:22:47.035Z,22.30
2022-12-15T12:25:22.028Z,23.90
2022-12-15T12:27:54.287Z,36.90
2022-12-15T12:30:24.295Z,34.67
2022-12-15T12:32:54.565Z,41.45
2022-12-15T12:35:32.159Z,37.15
2022-12-15T12:38:04.112Z,34.97
2022-12-15T12:40:38.674Z,30.87
2022-12-15T12:43:11.848Z,26.83
2022-12-15T12:45:44.459Z,24.92
2022-12-15T12:48:17.960Z,23.42
2022-12-15T12:50:47.767Z,21.63
2022-12-15T12:53:26.816Z,24.35
2022-12-15T12:55:55.161Z,17.33
2022-12-15T12:58:41.339Z,16.98
2022-12-15T13:01:27.104Z,21.45
2022-12-15T13:04:07.657Z,16.02
2022-12-15T13:06:59.240Z,17.33
2022-12-15T13:09:52.033Z,17.75
2022-12-15T13:15:38.353Z,14.35
2022-12-15T13:18:08.804Z,14.75
2022-12-15T13:20:38.346Z,15.23
2022-12-15T13:23:33.964Z,17.17
2022-12-15T13:26:12.801Z,17.30
2022-12-15T13:28:43.873Z,12.23
2022-12-15T13:31:30.715Z,12.00
2022-12-15T13:34:16.671Z,12.68
2022-12-15T13:36:50.644Z,14.68
2022-12-15T13:39:53.748Z,12.20
2022-12-15T13:42:41.572Z,9.50
2022-12-15T13:45:31.243Z,12.30
2022-12-15T13:48:00.446Z,12.97
2022-12-15T13:50:33.572Z,12.10
2022-12-15T13:53:20.391Z,17.70
2022-12-15T13:55:55.030Z,15.77
2022-12-15T13:58:25.907Z,15.70
2022-12-15T14:00:55.137Z,17.70
2022-12-15T14:03:23.776Z,15.45
2022-12-15T14:05:53.812Z,19.00
2022-12-15T14:08:23.559Z,19.52
2022-12-15T14:10:53.397Z,18.88
2022-12-15T14:13:23.462Z,18.17
2022-12-15T14:15:55.416Z,19.55
2022-12-15T14:18:28.271Z,17.70
2022-12-15T14:20:56.812Z,21.30
2022-12-15T14:23:25.781Z,21.38
2022-12-15T14:25:55.025Z,19.25
2022-12-15T14:28:31.657Z,18.55
2022-12-15T14:31:05.352Z,18.50
2022-12-15T14:33:35.619Z,20.40
2022-12-15T14:36:06.729Z,21.30
2022-12-15T14:38:40.764Z,20.25
2022-12-15T14:41:13.407Z,18.30
2022-12-15T14:43:42.093Z,20.02
2022-12-15T14:46:13.570Z,24.85
2022-12-15T14:48:44.662Z,19.50
2022-12-15T14:51:14.547Z,20.38
2022-12-15T14:53:43.827Z,23.05
2022-12-15T14:56:16.634Z,21.52
2022-12-15T14:58:45.291Z,19.38
2022-12-15T15:01:26.110Z,20.67
2022-12-15T15:03:15.993Z,17.37
2022-12-15T15:04:01.796Z,19.58
2022-12-15T15:06:32.014Z,20.60
2022-12-15T15:09:12.523Z,21.25
2022-12-15T15:11:42.463Z,19.97
2022-12-15T15:14:12.993Z,20.33
2022-12-15T15:16:43.280Z,20.10
2022-12-15T15:19:16.860Z,23.92
2022-12-15T15:21:47.505Z,19.25
2022-12-15T15:24:24.844Z,20.33
2022-12-15T15:26:53.487Z,23.07
2022-12-15T15:29:38.939Z,19.88
2022-12-15T15:32:16.483Z,21.67
2022-12-15T15:34:45.224Z,19.83
2022-12-15T15:37:18.356Z,17.30
2022-12-15T15:39:47.327Z,17.77
2022-12-15T15:42:15.577Z,19.33
2022-12-15T15:44:44.004Z,20.02
2022-12-15T15:47:18.793Z,23.63
2022-12-15T15:49:47.623Z,17.37
2022-12-15T15:52:15.912Z,17.40
2022-12-15T15:54:44.695Z,15.20
2022-12-15T15:57:15.283Z,17.30
2022-12-15T15:59:44.260Z,18.47
2022-12-15T16:02:13.655Z,19.88
2022-12-15T16:04:43.757Z,19.15
2022-12-15T16:07:17.458Z,19.73
2022-12-15T16:09:45.808Z,17.27
2022-12-15T16:12:21.751Z,16.08
2022-12-15T16:14:50.006Z,21.23
2022-12-15T16:17:19.092Z,17.92
2022-12-15T16:19:48.839Z,20.40
2022-12-15T16:22:18.595Z,20.15
2022-12-15T16:24:47.322Z,17.48
2022-12-15T16:27:16.087Z,21.80
2022-12-15T16:29:44.568Z,18.98
2022-12-15T16:32:13.385Z,22.38
2022-12-15T16:34:42.558Z,22.35
2022-12-15T16:37:19.287Z,21.13
2022-12-15T16:39:47.611Z,24.33
2022-12-15T16:42:16.213Z,25.90
2022-12-15T16:44:44.480Z,24.45
2022-12-15T16:47:12.801Z,25.38
2022-12-15T16:49:41.062Z,20.85
2022-12-15T16:52:10.569Z,26.45
2022-12-15T16:54:40.451Z,25.80
2022-12-15T16:57:12.656Z,25.27
2022-12-15T16:59:40.923Z,25.67
2022-12-15T17:02:19.700Z,26.65
2022-12-15T17:04:48.184Z,23.77
2022-12-15T17:07:20.376Z,26.15
2022-12-15T17:09:50.689Z,27.40
2022-12-15T17:12:19.438Z,36.33
2022-12-15T17:14:47.715Z,42.93
2022-12-15T17:17:16.333Z,42.97
2022-12-15T17:20:04.633Z,47.92
2022-12-15T17:22:33.711Z,42.05
2022-12-15T17:25:03.501Z,39.78
2022-12-15T17:27:32.019Z,38.67
2022-12-15T17:30:00.955Z,36.63
2022-12-15T17:32:29.180Z,36.45
2022-12-15T17:34:57.554Z,36.05
2022-12-15T17:37:28.096Z,38.70
2022-12-15T17:40:00.246Z,38.75
2022-12-15T17:42:29.918Z,42.40
2022-12-15T17:44:58.244Z,36.40
2022-12-15T17:47:28.824Z,41.20
2022-12-15T17:49:57.113Z,36.03
2022-12-15T17:52:27.963Z,38.42
2022-12-15T17:54:56.756Z,38.90
2022-12-15T17:57:25.450Z,35.33
2022-12-15T17:59:55.165Z,34.55
2022-12-15T18:02:23.629Z,32.88
2022-12-15T18:04:52.107Z,36.05
2022-12-15T18:07:21.505Z,34.10
2022-12-15T18:09:50.012Z,36.50
2022-12-15T18:12:19.614Z,35.15
2022-12-15T18:14:47.963Z,34.95
2022-12-15T18:17:17.588Z,37.10
2022-12-15T18:19:46.519Z,35.38
2022-12-15T18:22:15.883Z,32.60
2022-12-15T18:24:44.264Z,33.97
2022-12-15T18:27:19.651Z,33.70
2022-12-15T18:29:47.959Z,30.53
2022-12-15T18:32:18.001Z,31.17
2022-12-15T18:34:46.694Z,33.10
2022-12-15T18:37:16.890Z,32.53
2022-12-15T18:39:45.218Z,31.67
2022-12-15T18:42:15.425Z,27.83
2022-12-15T18:44:45.937Z,30.58
2022-12-15T18:47:18.803Z,34.83
2022-12-15T18:49:47.317Z,31.38
2022-12-15T18:52:17.651Z,29.70
2022-12-15T18:54:46.029Z,31.95
2022-12-15T18:57:24.640Z,28.80
2022-12-15T18:59:52.890Z,32.72
2022-12-15T19:02:22.667Z,30.80
2022-12-15T19:04:51.115Z,25.80
2022-12-15T19:07:19.413Z,29.35
2022-12-15T19:09:47.816Z,28.13
2022-12-15T19:12:19.316Z,28.83
2022-12-15T19:14:48.082Z,31.05
2022-12-15T19:17:34.955Z,31.63
2022-12-15T19:20:36.101Z,31.53
2022-12-15T19:23:04.553Z,35.00
2022-12-15T19:25:33.114Z,34.37
2022-12-15T19:28:02.143Z,33.35
2022-12-15T19:30:31.225Z,35.97
2022-12-15T19:32:59.492Z,35.78
2022-12-15T19:35:29.326Z,37.70
2022-12-15T19:37:58.364Z,34.67
2022-12-15T19:40:29.256Z,34.17
2022-12-15T19:42:58.269Z,33.50
2022-12-15T19:45:28.032Z,37.38
2022-12-15T19:47:56.799Z,39.75
2022-12-15T19:50:28.154Z,35.00
2022-12-15T19:52:59.534Z,35.17
2022-12-15T19:55:28.979Z,38.28
2022-12-15T19:57:57.227Z,36.00
2022-12-15T20:00:25.847Z,37.58
2022-12-15T20:02:54.948Z,41.38
2022-12-15T20:05:23.819Z,35.67
2022-12-15T20:07:53.190Z,37.63
2022-12-15T20:10:29.520Z,35.15
2022-12-15T20:13:00.348Z,38.35
2022-12-15T20:15:28.659Z,39.17
2022-12-15T20:17:57.658Z,38.00
2022-12-15T20:20:27.067Z,37.05
2022-12-15T20:22:56.455Z,38.17
2022-12-15T20:25:27.090Z,32.92
2022-12-15T20:27:55.438Z,38.67
2022-12-15T20:30:25.089Z,37.35
2022-12-15T20:32:53.649Z,33.20
2022-12-15T20:35:22.770Z,38.67
2022-12-15T20:37:52.601Z,36.05
2022-12-15T20:40:22.655Z,38.70
2022-12-15T20:42:53.143Z,36.17
2022-12-15T20:45:22.995Z,40.03
2022-12-15T20:47:52.936Z,36.72
2022-12-15T20:50:26.879Z,35.67
2022-12-15T20:52:55.728Z,31.15
2022-12-15T20:55:24.156Z,35.40
2022-12-15T20:57:53.758Z,37.67
2022-12-15T21:00:22.535Z,33.25
2022-12-15T21:02:51.983Z,36.42
2022-12-15T21:05:21.579Z,37.90
2022-12-15T21:07:50.197Z,37.77
2022-12-15T21:10:19.103Z,38.05
2022-12-15T21:12:49.192Z,36.65
2022-12-15T21:15:20.278Z,39.28
2022-12-15T21:17:57.242Z,37.13
2022-12-15T21:20:36.939Z,32.17
2022-12-15T21:23:05.167Z,35.40
2022-12-15T21:25:34.421Z,37.55
2022-12-15T21:28:02.658Z,34.85
2022-12-15T21:30:32.392Z,35.92
2022-12-15T21:33:00.842Z,34.63
2022-12-15T21:35:31.851Z,33.00
2022-12-15T21:38:00.390Z,35.00
2022-12-15T21:40:29.449Z,35.15
2022-12-15T21:42:58.135Z,33.27
2022-12-15T21:45:27.583Z,35.53
2022-12-15T21:48:14.955Z,38.28
2022-12-15T21:50:43.442Z,35.40
2022-12-15T21:53:15.945Z,34.08
2022-12-15T21:55:44.599Z,36.55
2022-12-15T21:58:18.152Z,33.00
2022-12-15T22:00:46.604Z,33.10
2022-12-15T22:03:16.237Z,32.30
2022-12-15T22:05:44.597Z,31.45
2022-12-15T22:08:16.916Z,32.47
2022-12-15T22:10:46.283Z,32.97
2022-12-15T22:13:16.849Z,33.25
2022-12-15T22:15:45.255Z,32.03
2022-12-15T22:18:19.438Z,33.88
2022-12-15T22:20:50.029Z,33.35
2022-12-15T22:23:19.097Z,36.38
2022-12-15T22:25:47.499Z,33.55
2022-12-15T22:28:19.684Z,34.42
2022-12-15T22:30:48.061Z,34.40
2022-12-15T22:33:21.715Z,32.08
2022-12-15T22:35:55.102Z,34.60
2022-12-15T22:38:24.220Z,31.67
2022-12-15T22:40:55.443Z,30.07
2022-12-15T22:43:25.311Z,31.63
2022-12-15T22:45:55.297Z,29.63
2022-12-15T22:48:24.844Z,30.48
2022-12-15T22:50:54.458Z,30.50
2022-12-15T22:53:23.980Z,31.73
2022-12-15T22:55:52.263Z,29.40
2022-12-15T22:58:26.433Z,28.90
2022-12-15T23:00:56.315Z,32.88
2022-12-15T23:03:24.868Z,30.63
2022-12-15T23:05:54.523Z,27.23
2022-12-15T23:08:23.132Z,31.65
2022-12-15T23:11:09.052Z,31.23
2022-12-15T23:13:37.378Z,29.98
2022-12-15T23:16:22.695Z,28.92
2022-12-15T23:18:52.167Z,26.65
2022-12-15T23:21:25.404Z,25.90
2022-12-15T23:23:53.723Z,25.98
2022-12-15T23:26:24.165Z,24.52
2022-12-15T23:28:52.978Z,22.42
2022-12-15T23:31:23.410Z,23.00
2022-12-15T23:33:52.101Z,19.95
2022-12-15T23:36:20.728Z,21.02
2022-12-15T23:38:50.345Z,24.23
2022-12-15T23:41:19.931Z,20.48
2022-12-15T23:43:48.483Z,17.85
2022-12-15T23:46:18.480Z,16.07
2022-12-15T23:48:46.792Z,17.42
2022-12-15T23:51:15.848Z,18.92
2022-12-15T23:53:44.682Z,14.80
2022-12-15T23:56:15.586Z,16.23
2022-12-15T23:58:44.884Z,13.98
